Time;durP1;ratioP1;P1;durP2;ratioP2;P2;SDS_P1;SDS_P2;PMS_P1;PMS_P2;Temp;Humidity;BMP_temperature;BMP_pressure;BME280_temperature;BME280_humidity;BME280_pressure;Samples;Min_cycle;Max_cycle;Signal;HPM_P1;HPM_P2
2023/04/23 00:00:14;;;;;;;9.27;2.80;;;15.00;1.00;;;;;;5049269;28;20412;-51
2023/04/23 00:02:43;;;;;;;7.43;2.67;;;14.90;1.00;;;;;;5049998;28;20420;-51
2023/04/23 00:05:11;;;;;;;7.82;2.80;;;14.90;1.00;;;;;;5048013;28;20520;-51
2023/04/23 00:07:37;;;;;;;8.48;2.88;;;14.80;1.00;;;;;;5039887;28;20469;-51
2023/04/23 00:10:04;;;;;;;7.45;2.70;;;14.80;1.00;;;;;;5069539;28;20411;-51
2023/04/23 00:12:31;;;;;;;8.55;3.00;;;14.80;1.00;;;;;;5070075;28;20564;-53
2023/04/23 00:14:57;;;;;;;7.40;2.35;;;14.70;1.00;;;;;;5069761;28;20376;-51
2023/04/23 00:17:23;;;;;;;8.47;2.60;;;14.60;1.00;;;;;;5050866;28;20461;-51
2023/04/23 00:19:50;;;;;;;7.13;2.70;;;14.60;1.00;;;;;;5069760;28;20375;-51
2023/04/23 00:22:16;;;;;;;7.45;2.58;;;14.70;1.00;;;;;;5068739;28;20403;-51
2023/04/23 00:24:42;;;;;;;7.60;2.80;;;14.70;1.00;;;;;;5057441;28;20692;-51
2023/04/23 00:27:08;;;;;;;9.75;2.20;;;14.70;1.00;;;;;;5049083;28;20385;-50
2023/04/23 00:29:34;;;;;;;6.60;2.70;;;14.60;1.00;;;;;;5049076;28;20420;-51
2023/04/23 00:32:00;;;;;;;8.48;2.60;;;14.60;1.00;;;;;;5049243;28;20630;-51
2023/04/23 00:34:26;;;;;;;8.88;2.63;;;14.70;1.00;;;;;;5049009;28;20378;-51
2023/04/23 00:36:51;;;;;;;6.83;2.23;;;14.60;1.00;;;;;;5051400;28;20472;-51
2023/04/23 00:39:17;;;;;;;6.80;2.60;;;14.50;1.00;;;;;;5067957;28;20482;-51
2023/04/23 00:41:43;;;;;;;6.90;2.45;;;14.60;1.00;;;;;;5069401;28;20841;-51
2023/04/23 00:44:09;;;;;;;8.13;2.23;;;14.50;1.00;;;;;;5068035;28;20891;-50
2023/04/23 00:46:35;;;;;;;8.30;3.08;;;14.50;1.00;;;;;;5068727;28;20737;-51
2023/04/23 00:49:01;;;;;;;7.75;2.88;;;14.40;1.00;;;;;;5068999;28;20415;-51
2023/04/23 00:51:28;;;;;;;8.50;2.95;;;14.30;99.90;;;;;;5068058;28;20388;-51
2023/04/23 00:53:55;;;;;;;8.10;2.87;;;14.40;47.50;;;;;;5067974;28;20380;-51
2023/04/23 00:56:22;;;;;;;8.77;3.00;;;14.40;3.20;;;;;;5049562;28;20415;-51
2023/04/23 00:58:49;;;;;;;7.40;2.97;;;14.30;99.90;;;;;;5068837;28;20482;-51
2023/04/23 01:01:17;;;;;;;6.97;2.70;;;14.20;1.00;;;;;;5068128;28;20375;-50
2023/04/23 01:03:42;;;;;;;8.50;3.40;;;14.10;99.90;;;;;;5068631;28;20383;-51
2023/04/23 01:06:08;;;;;;;7.93;3.20;;;14.20;99.90;;;;;;5067945;28;20390;-51
2023/04/23 01:08:35;;;;;;;10.30;3.97;;;14.30;99.90;;;;;;5068275;28;20423;-51
2023/04/23 01:11:02;;;;;;;8.68;3.80;;;14.30;1.00;;;;;;5068505;28;20480;-51
2023/04/23 01:13:28;;;;;;;8.60;3.70;;;14.30;1.00;;;;;;5068146;28;20380;-51
2023/04/23 01:15:54;;;;;;;11.20;4.00;;;14.30;1.00;;;;;;5068552;28;20375;-51
2023/04/23 01:18:20;;;;;;;10.68;3.75;;;14.40;1.00;;;;;;5068287;28;20391;-51
2023/04/23 01:20:46;;;;;;;7.78;3.80;;;14.40;5.10;;;;;;5068395;28;20384;-52
2023/04/23 01:23:11;;;;;;;9.10;3.90;;;14.30;99.90;;;;;;5067338;28;20390;-52
2023/04/23 01:25:37;;;;;;;7.82;3.78;;;14.30;99.90;;;;;;5068497;28;20440;-52
2023/04/23 01:28:05;;;;;;;7.53;3.60;;;14.30;99.90;;;;;;5067766;28;20388;-52
2023/04/23 01:30:32;;;;;;;10.50;3.80;;;14.40;41.30;;;;;;5068594;28;20376;-52
2023/04/23 01:32:58;;;;;;;9.88;3.90;;;14.40;19.50;;;;;;5068633;28;20384;-52
2023/04/23 01:35:24;;;;;;;9.23;4.15;;;14.30;99.90;;;;;;5067769;28;20387;-51
2023/04/23 01:37:52;;;;;;;9.98;3.70;;;14.20;99.90;;;;;;5068224;28;20829;-52
2023/04/23 01:40:19;;;;;;;8.10;4.13;;;14.20;99.90;;;;;;5067713;28;20379;-51
2023/04/23 01:42:44;;;;;;;10.63;3.90;;;14.20;1.00;;;;;;5068024;28;20391;-52
2023/04/23 01:45:10;;;;;;;8.70;3.60;;;14.20;1.00;;;;;;5067611;28;20503;-51
2023/04/23 01:47:36;;;;;;;9.05;3.92;;;14.10;1.00;;;;;;5068266;28;20391;-51
2023/04/23 01:50:04;;;;;;;7.82;3.60;;;14.10;1.00;;;;;;5067824;28;20889;-51
2023/04/23 01:52:29;;;;;;;9.65;3.85;;;14.10;1.00;;;;;;5067155;28;20388;-52
2023/04/23 01:54:55;;;;;;;7.75;4.00;;;14.10;1.00;;;;;;5068668;28;20859;-52
2023/04/23 01:57:25;;;;;;;8.90;3.47;;;14.10;1.00;;;;;;5067077;28;20917;-52
2023/04/23 01:59:51;;;;;;;8.13;3.60;;;14.20;1.00;;;;;;5068326;28;20409;-52
2023/04/23 02:02:18;;;;;;;8.80;3.85;;;14.20;1.00;;;;;;5067401;28;20478;-52
2023/04/23 02:04:44;;;;;;;10.77;3.70;;;14.30;99.90;;;;;;5067693;28;20390;-52
2023/04/23 02:07:10;;;;;;;9.65;3.92;;;14.30;99.90;;;;;;5066973;28;20450;-52
2023/04/23 02:09:36;;;;;;;9.60;3.40;;;14.20;1.00;;;;;;5067260;28;20581;-52
2023/04/23 02:12:02;;;;;;;10.00;3.50;;;14.10;1.00;;;;;;5067983;28;20380;-52
2023/04/23 02:14:28;;;;;;;8.48;3.90;;;14.10;99.90;;;;;;5066951;28;20425;-52
2023/04/23 02:16:54;;;;;;;8.40;4.00;;;14.20;1.00;;;;;;5068111;28;20380;-52
2023/04/23 02:19:20;;;;;;;10.77;4.10;;;14.10;99.90;;;;;;5066668;28;20391;-52
2023/04/23 02:21:46;;;;;;;8.20;3.70;;;14.10;56.70;;;;;;5067441;28;20441;-52
2023/04/23 02:24:12;;;;;;;10.45;4.05;;;14.10;99.90;;;;;;5067091;28;20391;-52
2023/04/23 02:26:37;;;;;;;7.73;3.87;;;14.00;99.90;;;;;;5067745;28;20380;-52
2023/04/23 02:29:03;;;;;;;9.13;3.90;;;13.80;1.00;;;;;;5067308;28;20411;-52
2023/04/23 02:31:29;;;;;;;8.73;3.67;;;13.70;99.90;;;;;;5067641;28;20375;-52
2023/04/23 02:33:55;;;;;;;8.32;3.85;;;13.80;99.90;;;;;;5067302;28;20402;-52
2023/04/23 02:36:21;;;;;;;10.80;3.80;;;13.90;99.90;;;;;;5066898;28;20919;-52
2023/04/23 02:38:48;;;;;;;7.00;2.92;;;14.00;1.00;;;;;;5067315;28;20400;-52
2023/04/23 02:41:13;;;;;;;10.75;4.00;;;14.00;99.90;;;;;;5066738;28;20384;-52
2023/04/23 02:43:39;;;;;;;11.25;4.05;;;14.00;1.00;;;;;;5067308;28;20413;-52
2023/04/23 02:46:08;;;;;;;8.10;3.20;;;14.00;73.60;;;;;;5066775;28;20384;-52
2023/04/23 02:48:39;;;;;;;7.90;3.10;;;13.90;99.90;;;;;;5067180;28;20411;-52
2023/04/23 02:51:07;;;;;;;7.75;2.92;;;13.90;99.90;;;;;;5066894;28;20424;-52
2023/04/23 02:53:32;;;;;;;7.45;3.60;;;14.00;1.00;;;;;;5067173;28;20387;-52
2023/04/23 02:55:58;;;;;;;9.07;3.47;;;14.00;1.00;;;;;;5067384;28;20380;-52
2023/04/23 02:58:24;;;;;;;7.53;2.78;;;14.00;99.90;;;;;;5066182;28;20953;-52
2023/04/23 03:00:49;;;;;;;7.20;3.17;;;13.90;99.90;;;;;;5067703;28;20709;-52
2023/04/23 03:03:15;;;;;;;7.97;3.00;;;13.90;99.90;;;;;;5067110;28;20380;-52
2023/04/23 03:05:40;;;;;;;9.93;3.38;;;13.90;99.90;;;;;;5067753;28;20387;-52
2023/04/23 03:08:06;;;;;;;6.80;2.83;;;13.90;99.90;;;;;;5066434;28;20410;-52
2023/04/23 03:10:31;;;;;;;8.20;2.90;;;13.80;1.00;;;;;;5067555;28;20556;-51
2023/04/23 03:12:57;;;;;;;8.10;3.47;;;13.70;1.00;;;;;;5067408;28;20372;-52
2023/04/23 03:15:23;;;;;;;8.23;2.78;;;13.60;6.70;;;;;;5067165;28;21259;-52
2023/04/23 03:17:51;;;;;;;7.63;2.63;;;14.00;31.40;;;;;;5071007;28;20388;-52
2023/04/23 03:20:17;;;;;;;8.65;3.20;;;13.60;1.00;;;;;;5069867;28;20934;-52
2023/04/23 03:22:43;;;;;;;6.53;2.85;;;13.70;1.00;;;;;;5069585;28;20395;-52
2023/04/23 03:25:09;;;;;;;8.27;2.90;;;13.60;99.90;;;;;;5070043;28;20380;-52
2023/04/23 03:27:34;;;;;;;6.85;2.70;;;13.70;99.90;;;;;;5070786;28;20483;-52
2023/04/23 03:30:00;;;;;;;8.07;3.20;;;13.60;99.90;;;;;;5071024;28;20488;-52
2023/04/23 03:32:25;;;;;;;7.25;2.80;;;13.50;99.90;;;;;;5070067;28;20402;-52
2023/04/23 03:34:52;;;;;;;7.57;2.40;;;13.50;99.90;;;;;;5070508;28;20384;-52
2023/04/23 03:37:18;;;;;;;6.50;2.63;;;13.50;1.00;;;;;;5069715;28;20387;-52
2023/04/23 03:39:43;;;;;;;6.47;2.47;;;13.60;99.90;;;;;;5070582;28;20446;-52
2023/04/23 03:42:09;;;;;;;7.73;2.43;;;13.40;99.90;;;;;;5070115;28;20368;-52
2023/04/23 03:44:35;;;;;;;6.45;2.53;;;13.40;1.00;;;;;;5070748;28;20417;-52
2023/04/23 03:47:00;;;;;;;8.05;2.65;;;13.40;29.20;;;;;;5070699;28;20388;-52
2023/04/23 03:49:26;;;;;;;6.73;2.60;;;13.40;99.90;;;;;;5069928;28;20403;-52
2023/04/23 03:51:52;;;;;;;7.40;2.80;;;13.40;99.90;;;;;;5070800;28;20902;-52
2023/04/23 03:54:18;;;;;;;7.03;2.60;;;13.40;99.90;;;;;;5069917;28;20417;-52
2023/04/23 03:56:44;;;;;;;10.00;3.20;;;13.40;99.90;;;;;;5070330;28;20398;-52
2023/04/23 03:59:10;;;;;;;6.63;2.70;;;13.50;99.90;;;;;;5065990;28;20403;-52
2023/04/23 04:01:36;;;;;;;8.37;2.97;;;13.50;99.90;;;;;;5067480;28;20391;-53
2023/04/23 04:04:01;;;;;;;7.47;3.10;;;13.40;99.90;;;;;;5069931;28;20383;-54
2023/04/23 04:06:27;;;;;;;7.27;2.87;;;13.40;99.90;;;;;;5069621;28;20582;-55
2023/04/23 04:08:52;;;;;;;6.73;2.90;;;13.30;99.90;;;;;;5069411;28;20419;-55
2023/04/23 04:11:18;;;;;;;7.85;2.78;;;13.20;99.90;;;;;;5069625;28;20383;-52
2023/04/23 04:13:44;;;;;;;8.20;3.10;;;13.20;99.90;;;;;;5070312;28;20819;-52
2023/04/23 04:16:09;;;;;;;6.50;2.87;;;13.00;99.90;;;;;;5069412;28;20380;-52
2023/04/23 04:18:35;;;;;;;6.70;2.60;;;13.00;99.90;;;;;;5070238;28;20665;-51
2023/04/23 04:21:01;;;;;;;8.67;3.20;;;12.90;99.90;;;;;;5070176;28;20857;-52
2023/04/23 04:23:28;;;;;;;8.02;3.30;;;12.80;99.90;;;;;;5068839;28;20483;-52
2023/04/23 04:25:55;;;;;;;8.47;2.80;;;12.80;99.90;;;;;;5069857;28;20790;-52
2023/04/23 04:28:21;;;;;;;7.80;3.20;;;12.80;99.90;;;;;;5069419;28;20714;-53
2023/04/23 04:30:49;;;;;;;8.32;2.90;;;12.80;99.90;;;;;;5069583;28;20449;-52
2023/04/23 04:33:14;;;;;;;9.83;3.00;;;12.80;99.90;;;;;;5068892;28;20403;-52
2023/04/23 04:35:40;;;;;;;7.30;2.92;;;12.80;99.90;;;;;;5068341;28;20391;-52
2023/04/23 04:38:06;;;;;;;7.83;3.20;;;12.80;99.90;;;;;;5067532;28;20395;-52
2023/04/23 04:40:33;;;;;;;7.45;3.10;;;12.70;99.90;;;;;;5052781;28;20385;-51
2023/04/23 04:42:59;;;;;;;9.10;3.80;;;12.60;1.00;;;;;;5050303;28;20401;-52
2023/04/23 04:45:24;;;;;;;7.70;3.40;;;12.50;1.00;;;;;;5068602;28;20407;-52
2023/04/23 04:47:51;;;;;;;8.20;3.40;;;12.40;1.00;;;;;;5069767;28;20379;-52
2023/04/23 04:50:17;;;;;;;7.80;2.97;;;12.40;1.00;;;;;;5068212;28;20416;-52
2023/04/23 04:52:42;;;;;;;8.07;3.40;;;12.50;1.00;;;;;;5066959;28;20968;-52
2023/04/23 04:55:08;;;;;;;8.13;3.05;;;12.60;1.00;;;;;;5048588;28;20598;-52
2023/04/23 04:57:34;;;;;;;7.07;3.15;;;12.60;1.00;;;;;;5049311;28;20382;-52
2023/04/23 05:00:17;;;;;;;7.15;2.65;;;12.60;1.00;;;;;;5049243;28;20531;-52
2023/04/23 05:02:43;;;;;;;7.22;2.85;;;12.70;1.00;;;;;;5030654;28;20378;-51
2023/04/23 05:05:08;;;;;;;7.30;2.83;;;12.80;1.00;;;;;;5048385;28;20387;-52
2023/04/23 05:07:35;;;;;;;8.80;3.27;;;12.90;1.00;;;;;;5056396;28;20387;-51
2023/04/23 05:10:00;;;;;;;6.53;2.95;;;13.00;1.00;;;;;;5068384;28;20425;-52
2023/04/23 05:12:26;;;;;;;7.90;3.00;;;13.10;1.00;;;;;;5067931;28;20464;-52
2023/04/23 05:14:51;;;;;;;7.20;2.70;;;13.20;1.00;;;;;;5068669;28;20875;-52
2023/04/23 05:17:17;;;;;;;6.17;2.80;;;13.40;99.90;;;;;;5067663;28;20380;-52
2023/04/23 05:19:43;;;;;;;7.60;2.95;;;13.30;99.90;;;;;;5068650;28;20836;-52
2023/04/23 05:22:08;;;;;;;6.73;2.40;;;13.20;99.90;;;;;;5068043;28;20510;-52
2023/04/23 05:24:35;;;;;;;6.90;2.50;;;13.40;99.90;;;;;;5059580;28;20401;-52
2023/04/23 05:27:01;;;;;;;6.50;2.42;;;13.50;99.90;;;;;;5048438;28;20396;-52
2023/04/23 05:29:27;;;;;;;6.50;2.63;;;13.70;1.00;;;;;;5047548;28;20413;-52
2023/04/23 05:31:53;;;;;;;6.00;2.30;;;13.90;1.00;;;;;;5048356;28;21221;-52
2023/04/23 05:34:18;;;;;;;7.80;3.10;;;14.00;1.00;;;;;;5060941;28;20395;-52
2023/04/23 05:36:44;;;;;;;7.05;3.08;;;14.00;1.00;;;;;;5067861;28;20395;-52
2023/04/23 05:39:09;;;;;;;8.10;3.00;;;14.00;1.00;;;;;;5067183;28;20403;-52
2023/04/23 05:41:35;;;;;;;7.27;2.63;;;14.20;1.00;;;;;;5066165;28;20399;-52
2023/04/23 05:44:01;;;;;;;8.30;2.80;;;14.20;99.90;;;;;;5060511;28;20760;-57
2023/04/23 05:46:26;;;;;;;7.00;3.10;;;14.30;1.00;;;;;;5059381;28;20478;-52
2023/04/23 05:48:52;;;;;;;7.60;2.60;;;14.30;99.90;;;;;;5054182;28;20411;-52
2023/04/23 05:51:18;;;;;;;7.07;2.60;;;14.20;26.00;;;;;;5047394;28;20398;-52
2023/04/23 05:53:43;;;;;;;8.07;3.20;;;14.30;99.90;;;;;;5047557;28;20872;-52
2023/04/23 05:56:09;;;;;;;7.30;3.00;;;14.20;1.00;;;;;;5049615;28;20866;-52
2023/04/23 05:58:35;;;;;;;6.05;2.30;;;14.20;99.90;;;;;;5067074;28;20392;-53
2023/04/23 06:01:00;;;;;;;6.70;2.30;;;14.40;99.90;;;;;;5064305;28;20460;-53
2023/04/23 06:03:26;;;;;;;9.33;2.20;;;14.40;99.90;;;;;;5058996;28;20918;-53
2023/04/23 06:05:51;;;;;;;5.90;2.20;;;14.40;1.00;;;;;;5061963;28;20428;-53
2023/04/23 06:08:19;;;;;;;7.30;2.10;;;14.40;1.00;;;;;;5082544;28;20902;-52
2023/04/23 06:10:45;;;;;;;6.65;2.20;;;14.20;1.00;;;;;;5058472;28;20497;-52
2023/04/23 06:13:11;;;;;;;6.63;2.78;;;14.10;1.00;;;;;;5046848;28;20464;-53
2023/04/23 06:15:37;;;;;;;6.10;2.10;;;14.20;1.00;;;;;;5052101;28;20886;-53
2023/04/23 06:18:03;;;;;;;6.40;2.00;;;14.50;99.90;;;;;;5059846;28;20371;-53
2023/04/23 06:20:29;;;;;;;5.63;2.08;;;14.70;1.00;;;;;;5052342;28;20912;-52
2023/04/23 06:22:55;;;;;;;6.03;1.80;;;14.80;99.90;;;;;;5052720;28;20634;-52
2023/04/23 06:25:20;;;;;;;6.03;2.10;;;15.00;65.30;;;;;;5062663;28;20920;-52
2023/04/23 06:27:46;;;;;;;5.77;1.90;;;15.20;1.00;;;;;;5051272;28;20697;-53
2023/04/23 06:30:12;;;;;;;6.60;2.70;;;15.40;1.00;;;;;;5048685;28;20451;-53
2023/04/23 06:32:38;;;;;;;6.95;1.90;;;15.50;99.90;;;;;;5057444;28;20456;-52
2023/04/23 06:35:04;;;;;;;5.00;1.47;;;15.50;99.90;;;;;;5052654;28;20835;-53
2023/04/23 06:37:30;;;;;;;4.90;1.50;;;15.50;21.90;;;;;;5054138;28;20416;-53
2023/04/23 06:39:57;;;;;;;5.68;1.70;;;15.80;1.00;;;;;;5053433;28;20440;-53
2023/04/23 06:42:22;;;;;;;5.43;1.70;;;15.90;1.00;;;;;;5053424;28;20508;-52
2023/04/23 06:44:48;;;;;;;6.93;1.70;;;16.20;1.00;;;;;;5058106;28;20414;-53
2023/04/23 06:47:15;;;;;;;5.20;1.30;;;16.10;99.90;;;;;;5069000;28;20386;-53
2023/04/23 06:49:40;;;;;;;6.15;1.45;;;16.00;99.90;;;;;;5060456;28;20535;-53
2023/04/23 06:52:06;;;;;;;5.50;1.50;;;16.00;99.90;;;;;;5061962;28;20429;-52
2023/04/23 06:54:31;;;;;;;5.50;1.30;;;15.90;99.90;;;;;;5067612;28;20400;-53
2023/04/23 06:56:57;;;;;;;7.00;1.40;;;16.00;99.90;;;;;;5057008;28;20397;-53
2023/04/23 06:59:22;;;;;;;5.37;1.30;;;16.20;99.90;;;;;;5052906;28;20600;-52
2023/04/23 07:01:48;;;;;;;6.40;1.43;;;16.30;99.90;;;;;;5077829;28;20403;-52
2023/04/23 07:04:14;;;;;;;6.38;1.30;;;16.50;99.90;;;;;;5070609;28;20383;-52
2023/04/23 07:06:40;;;;;;;5.25;1.30;;;17.10;99.90;;;;;;5071523;28;20455;-53
2023/04/23 07:09:06;;;;;;;5.40;1.33;;;18.00;69.60;;;;;;5080383;28;20431;-53
2023/04/23 07:11:33;;;;;;;5.20;1.30;;;18.60;1.00;;;;;;5074517;28;20858;-53
2023/04/23 07:13:59;;;;;;;5.60;1.30;;;18.70;1.00;;;;;;5072823;28;20393;-52
2023/04/23 07:16:28;;;;;;;5.17;1.43;;;17.90;1.00;;;;;;5054002;28;20398;-52
2023/04/23 07:18:54;;;;;;;5.32;1.20;;;17.60;1.00;;;;;;5061790;28;20394;-52
2023/04/23 07:21:19;;;;;;;5.20;1.20;;;17.20;1.00;;;;;;5069980;28;20380;-53
2023/04/23 07:23:45;;;;;;;6.03;1.30;;;16.80;1.00;;;;;;5057687;28;20882;-51
2023/04/23 07:26:11;;;;;;;6.80;1.30;;;16.90;1.00;;;;;;5066898;28;20531;-51
2023/04/23 07:28:37;;;;;;;4.90;1.00;;;17.20;1.00;;;;;;5060910;28;20876;-52
2023/04/23 07:31:03;;;;;;;5.70;1.30;;;17.60;1.00;;;;;;5070681;28;20395;-52
2023/04/23 07:33:28;;;;;;;6.28;1.40;;;17.90;1.00;;;;;;5062772;28;21026;-52
2023/04/23 07:35:54;;;;;;;4.90;1.00;;;18.00;1.00;;;;;;5070790;28;20405;-52
2023/04/23 07:38:19;;;;;;;5.50;1.23;;;18.30;1.00;;;;;;5073235;28;20431;-53
2023/04/23 07:40:46;;;;;;;4.80;0.90;;;;;;;;;;5050555;28;20850;-53
2023/04/23 07:43:12;;;;;;;5.50;1.00;;;;;;;;;;5056490;28;20469;-53
2023/04/23 07:45:38;;;;;;;5.10;2.00;;;25.00;99.90;;;;;;5068879;28;20456;-53
2023/04/23 07:48:04;;;;;;;5.50;3.00;;;25.20;99.90;;;;;;5052011;28;20475;-52
2023/04/23 07:50:30;;;;;;;7.47;2.78;;;24.10;99.90;;;;;;5070389;28;20492;-53
2023/04/23 07:52:55;;;;;;;5.30;2.20;;;22.30;99.90;;;;;;5075027;28;20854;-53
2023/04/23 07:55:21;;;;;;;5.22;1.80;;;20.30;99.90;;;;;;5055648;28;20385;-52
2023/04/23 07:57:46;;;;;;;5.20;1.48;;;19.50;99.90;;;;;;5058070;28;20377;-53
2023/04/23 08:00:13;;;;;;;5.13;1.30;;;19.20;99.90;;;;;;5065888;28;20463;-53
2023/04/23 08:02:38;;;;;;;5.20;1.50;;;19.70;99.90;;;;;;5073390;28;20392;-52
2023/04/23 08:05:05;;;;;;;5.30;1.95;;;20.90;99.90;;;;;;5067281;28;20744;-54
2023/04/23 08:07:31;;;;;;;5.80;2.20;;;22.10;99.90;;;;;;5068699;28;20676;-53
2023/04/23 08:10:01;;;;;;;6.05;2.95;;;22.60;99.90;;;;;;5068280;28;20497;-54
2023/04/23 08:12:27;;;;;;;5.70;3.70;;;23.10;99.90;;;;;;5067920;28;20396;-53
2023/04/23 08:14:53;;;;;;;6.60;4.38;;;23.70;99.90;;;;;;5052961;28;20444;-53
2023/04/23 08:17:18;;;;;;;6.07;3.97;;;24.00;99.90;;;;;;5077579;28;20402;-53
2023/04/23 08:19:44;;;;;;;5.97;3.40;;;22.90;99.90;;;;;;5090540;28;20420;-53
2023/04/23 08:22:10;;;;;;;5.80;3.50;;;22.40;99.90;;;;;;5072798;28;20395;-53
2023/04/23 08:24:35;;;;;;;6.20;3.77;;;22.70;99.90;;;;;;5069394;28;20444;-53
2023/04/23 08:27:01;;;;;;;5.97;3.63;;;23.10;99.90;;;;;;5067629;28;20411;-53
2023/04/23 08:29:27;;;;;;;6.05;3.78;;;23.10;99.90;;;;;;5065440;28;20871;-53
2023/04/23 08:31:53;;;;;;;6.07;3.40;;;23.10;99.90;;;;;;5054203;28;20397;-53
2023/04/23 08:34:19;;;;;;;6.57;4.30;;;23.50;99.90;;;;;;5068591;28;20868;-53
2023/04/23 08:36:45;;;;;;;6.20;4.70;;;24.00;99.90;;;;;;5068632;28;20391;-54
2023/04/23 08:39:11;;;;;;;6.05;3.13;;;24.70;99.90;;;;;;5070232;28;20408;-53
2023/04/23 08:41:43;;;;;;;5.43;1.75;;;25.60;99.90;;;;;;5069206;28;20380;-53
2023/04/23 08:44:20;;;;;;;8.48;7.68;;;25.90;99.90;;;;;;5049341;28;20531;-53
2023/04/23 08:46:47;;;;;;;7.10;5.43;;;25.30;99.90;;;;;;5062756;28;20427;-53
2023/04/23 08:49:17;;;;;;;6.80;5.03;;;24.70;99.90;;;;;;5067775;28;20868;-53
2023/04/23 08:51:53;;;;;;;6.38;4.93;;;24.60;99.90;;;;;;5068994;28;20396;-53
2023/04/23 08:54:27;;;;;;;7.10;5.88;;;24.80;99.90;;;;;;5079239;28;20416;-53
2023/04/23 08:56:57;;;;;;;6.10;3.00;;;26.20;99.90;;;;;;5061994;28;20388;-53
2023/04/23 08:59:25;;;;;;;7.28;6.05;;;26.90;99.90;;;;;;5051441;28;20393;-53
2023/04/23 09:01:52;;;;;;;6.90;6.20;;;26.30;99.90;;;;;;5063703;28;20495;-53
2023/04/23 09:04:19;;;;;;;7.05;6.22;;;25.90;99.90;;;;;;5067963;28;20402;-53
2023/04/23 09:06:45;;;;;;;7.05;6.10;;;25.60;99.90;;;;;;5047488;28;20474;-53
2023/04/23 09:09:14;;;;;;;7.77;5.67;;;24.90;99.90;;;;;;5067628;28;20620;-55
2023/04/23 09:11:41;;;;;;;6.80;5.20;;;25.40;99.90;;;;;;5069124;28;20485;-52
2023/04/23 09:14:07;;;;;;;6.47;4.90;;;24.60;99.90;;;;;;5068280;28;20400;-53
2023/04/23 09:16:33;;;;;;;7.15;4.40;;;23.80;99.90;;;;;;5068458;28;20605;-53
2023/04/23 09:18:59;;;;;;;8.07;4.10;;;23.00;99.90;;;;;;5068511;28;20492;-53
2023/04/23 09:21:24;;;;;;;6.80;4.60;;;23.80;99.90;;;;;;5071670;28;20414;-53
2023/04/23 09:23:51;;;;;;;7.28;5.10;;;26.10;99.90;;;;;;5069093;28;20376;-53
2023/04/23 09:26:23;;;;;;;7.95;6.78;;;;;;;;;;5068669;28;20397;-53
2023/04/23 09:28:52;;;;;;;11.73;10.73;;;29.00;99.90;;;;;;5051003;28;20717;-53
2023/04/23 09:31:22;;;;;;;9.03;8.23;;;29.30;99.90;;;;;;5068770;28;20874;-53
2023/04/23 09:33:53;;;;;;;8.40;7.60;;;30.00;99.90;;;;;;5080672;28;20382;-52
2023/04/23 09:36:25;;;;;;;11.80;10.70;;;29.70;99.90;;;;;;5083746;28;20413;-54
2023/04/23 09:38:56;;;;;;;9.85;8.95;;;29.30;99.90;;;;;;5069145;28;20426;-54
2023/04/23 09:41:24;;;;;;;8.23;7.43;;;29.70;99.90;;;;;;5067603;28;20453;-53
2023/04/23 09:43:55;;;;;;;8.30;7.38;;;29.10;99.90;;;;;;5071643;28;20427;-53
2023/04/23 09:46:37;;;;;;;7.53;6.80;;;28.00;99.90;;;;;;5061406;28;20412;-53
2023/04/23 09:49:07;;;;;;;8.20;7.13;;;28.50;99.90;;;;;;5062203;28;20434;-53
2023/04/23 09:51:40;;;;;;;8.48;6.70;;;29.10;99.90;;;;;;5076886;28;20967;-53
2023/04/23 09:54:15;;;;;;;7.30;6.53;;;28.50;99.90;;;;;;5056036;28;20368;-54
2023/04/23 09:56:41;;;;;;;7.83;7.03;;;27.90;99.90;;;;;;5068959;28;20396;-53
2023/04/23 09:59:23;;;;;;;7.33;6.63;;;27.80;99.90;;;;;;5049930;28;20445;-53
2023/04/23 10:01:49;;;;;;;7.80;7.00;;;27.20;99.90;;;;;;5067614;28;20430;-53
2023/04/23 10:04:23;;;;;;;7.28;6.47;;;26.60;99.90;;;;;;5049496;28;20420;-53
2023/04/23 10:06:56;;;;;;;7.47;6.50;;;25.80;99.90;;;;;;5068143;28;20796;-53
2023/04/23 10:09:23;;;;;;;7.10;6.40;;;25.90;99.90;;;;;;5058176;28;20526;-53
2023/04/23 10:12:03;;;;;;;7.40;6.60;;;26.40;99.90;;;;;;5057994;28;20428;-53
2023/04/23 10:14:29;;;;;;;7.50;6.50;;;26.40;99.90;;;;;;5066162;28;20412;-53
2023/04/23 10:16:58;;;;;;;8.20;6.90;;;26.40;99.90;;;;;;5067491;28;20412;-53
2023/04/23 10:19:24;;;;;;;7.60;6.90;;;25.40;99.90;;;;;;5067303;28;20441;-52
2023/04/23 10:22:04;;;;;;;7.90;7.10;;;25.10;99.90;;;;;;5061589;28;20487;-53
2023/04/23 10:24:32;;;;;;;7.00;6.30;;;25.00;99.90;;;;;;5060808;28;20391;-53
2023/04/23 10:27:04;;;;;;;7.80;6.90;;;24.30;99.90;;;;;;5056738;28;20459;-53
2023/04/23 10:29:35;;;;;;;8.65;6.60;;;24.00;99.90;;;;;;5057605;28;20472;-53
2023/04/23 10:32:03;;;;;;;7.40;6.60;;;24.00;99.90;;;;;;5073515;28;20437;-52
2023/04/23 10:34:30;;;;;;;8.05;6.60;;;23.90;99.90;;;;;;5075498;28;20420;-53
2023/04/23 10:36:58;;;;;;;7.60;6.80;;;24.10;99.90;;;;;;5072045;28;20429;-52
2023/04/23 10:39:34;;;;;;;6.75;6.05;;;24.10;99.90;;;;;;5071802;28;20415;-53
2023/04/23 10:42:01;;;;;;;7.00;6.20;;;24.10;99.90;;;;;;5074463;28;20449;-53
2023/04/23 10:44:37;;;;;;;6.60;5.60;;;24.30;99.90;;;;;;5053134;28;20783;-54
2023/04/23 10:47:04;;;;;;;6.57;5.70;;;24.00;99.90;;;;;;5063692;28;20436;-53
2023/04/23 10:49:32;;;;;;;6.60;5.90;;;23.70;99.90;;;;;;5059186;28;20526;-54
2023/04/23 10:52:02;;;;;;;6.60;5.83;;;23.20;99.90;;;;;;5078133;28;20888;-52
2023/04/23 10:54:32;;;;;;;7.07;5.90;;;23.10;99.90;;;;;;5078469;28;20847;-53
2023/04/23 10:57:01;;;;;;;6.97;6.20;;;22.80;99.90;;;;;;5057705;28;20408;-53
2023/04/23 10:59:32;;;;;;;6.70;5.80;;;22.30;99.90;;;;;;5074641;28;20872;-53
2023/04/23 11:02:08;;;;;;;6.93;5.80;;;22.40;99.90;;;;;;5061970;28;20390;-52
2023/04/23 11:04:35;;;;;;;6.60;5.80;;;22.60;99.90;;;;;;5080589;28;20462;-52
2023/04/23 11:07:07;;;;;;;6.70;5.30;;;22.50;99.90;;;;;;5073949;28;20888;-52
2023/04/23 11:09:37;;;;;;;6.88;5.90;;;22.20;99.90;;;;;;5078026;28;20572;-52
2023/04/23 11:12:06;;;;;;;8.00;5.70;;;22.20;99.90;;;;;;5079784;28;20386;-53
2023/04/23 11:14:37;;;;;;;8.30;5.63;;;22.40;99.90;;;;;;5076579;28;20409;-52
2023/04/23 11:17:05;;;;;;;6.75;5.45;;;21.40;99.90;;;;;;5083276;28;20468;-52
2023/04/23 11:19:38;;;;;;;6.68;5.35;;;22.60;99.90;;;;;;5077373;28;20677;-52
2023/04/23 11:22:19;;;;;;;6.20;5.50;;;22.30;99.90;;;;;;5079769;28;20428;-53
2023/04/23 11:24:45;;;;;;;6.85;5.45;;;22.40;99.90;;;;;;5065318;28;20481;-53
2023/04/23 11:27:15;;;;;;;6.30;5.07;;;22.30;99.90;;;;;;5070773;28;20420;-57
2023/04/23 11:29:43;;;;;;;6.07;5.07;;;22.50;99.90;;;;;;5060124;28;20504;-52
2023/04/23 11:32:11;;;;;;;7.60;5.57;;;21.90;99.90;;;;;;5075549;28;20474;-52
2023/04/23 11:34:45;;;;;;;6.40;5.78;;;21.10;99.90;;;;;;5083154;28;20546;-52
2023/04/23 11:37:13;;;;;;;6.80;5.70;;;21.30;99.90;;;;;;5073009;28;20433;-53
2023/04/23 11:39:43;;;;;;;6.53;5.50;;;21.10;99.90;;;;;;5086887;28;20400;-54
2023/04/23 11:42:13;;;;;;;6.80;5.10;;;21.00;99.90;;;;;;5054144;28;20407;-53
2023/04/23 11:44:40;;;;;;;6.20;5.60;;;21.40;99.90;;;;;;5077967;28;20396;-54
2023/04/23 11:47:11;;;;;;;6.30;5.55;;;21.80;99.90;;;;;;5079775;28;20436;-53
2023/04/23 11:49:38;;;;;;;6.20;5.60;;;21.80;99.90;;;;;;5073840;28;20418;-54
2023/04/23 11:52:04;;;;;;;6.75;6.05;;;21.70;99.90;;;;;;5059346;28;20499;-53
2023/04/23 11:54:30;;;;;;;5.90;5.27;;;21.80;99.90;;;;;;5077618;28;20823;-53
2023/04/23 11:56:58;;;;;;;6.40;5.80;;;21.80;99.90;;;;;;5085412;28;20485;-52
2023/04/23 11:59:24;;;;;;;6.60;5.30;;;22.10;99.90;;;;;;5072652;28;20396;-54
2023/04/23 12:01:53;;;;;;;6.47;5.60;;;22.10;99.90;;;;;;5084561;28;20404;-53
2023/04/23 12:04:21;;;;;;;6.10;5.30;;;21.90;99.90;;;;;;5079255;28;20430;-53
2023/04/23 12:06:48;;;;;;;6.40;5.68;;;22.30;99.90;;;;;;5076153;28;20392;-53
2023/04/23 12:09:15;;;;;;;6.70;6.00;;;22.50;99.90;;;;;;5084097;28;20418;-53
2023/04/23 12:11:44;;;;;;;6.40;5.38;;;22.60;99.90;;;;;;5074920;28;20474;-53
2023/04/23 12:14:10;;;;;;;6.57;5.60;;;22.30;99.90;;;;;;5087677;28;20520;-53
2023/04/23 12:16:36;;;;;;;6.47;5.50;;;22.10;99.90;;;;;;5077147;28;20480;-53
2023/04/23 12:19:03;;;;;;;6.10;5.30;;;22.20;99.90;;;;;;5085546;28;20397;-53
2023/04/23 12:21:29;;;;;;;6.50;5.68;;;22.30;99.90;;;;;;5072089;28;20494;-53
2023/04/23 12:23:56;;;;;;;7.70;5.38;;;22.30;99.90;;;;;;5088437;28;20418;-53
2023/04/23 12:26:24;;;;;;;6.40;5.70;;;22.30;99.90;;;;;;5079118;28;20459;-53
2023/04/23 12:28:51;;;;;;;6.65;5.65;;;22.60;99.90;;;;;;5071528;28;20515;-53
2023/04/23 12:31:21;;;;;;;5.80;5.10;;;22.60;99.90;;;;;;5073451;28;20391;-53
2023/04/23 12:33:47;;;;;;;6.20;5.50;;;22.50;99.90;;;;;;5083223;28;20399;-53
2023/04/23 12:36:17;;;;;;;6.20;4.90;;;22.80;99.90;;;;;;5050914;28;20391;-54
2023/04/23 12:38:43;;;;;;;6.40;5.22;;;22.90;99.90;;;;;;5051674;28;20876;-53
2023/04/23 12:41:09;;;;;;;6.25;5.50;;;23.00;99.90;;;;;;5069958;28;20388;-53
2023/04/23 12:43:35;;;;;;;7.10;4.50;;;23.10;99.90;;;;;;5065227;28;20395;-53
2023/04/23 12:46:01;;;;;;;7.40;5.50;;;23.00;99.90;;;;;;5065126;28;20779;-54
2023/04/23 12:48:26;;;;;;;6.10;5.10;;;22.90;99.90;;;;;;5068576;28;20395;-54